Home > Products > Valid Products > TAF

000
FTUS41 KCTP 291154
TAFAOO
TAF
KAOO 291154Z 2912/3012 13003KT 4SM BR OVC003
     FM292100 11004KT 4SM -RA BR BKN007 OVC015
     FM300400 00000KT 2SM BR OVC004=



000
FTUS41 KCTP 291154
TAFUNV
TAF
KUNV 291154Z 2912/3012 06006KT 3SM BR SCT003 OVC011
     FM291400 09003KT 2SM BR OVC007=



000
FTUS41 KCTP 291154
TAFBFD
TAF
KBFD 291154Z 2912/3012 09006KT 3SM BR OVC002
     FM291500 10003KT 6SM BR BKN002 OVC015
     FM292100 24002KT 4SM -RA BR SCT002 OVC015
     FM300200 35004KT P6SM SCT015 OVC025=



000
FTUS41 KCTP 291154
TAFIPT
TAF
KIPT 291154Z 2912/3012 15011KT P6SM OVC028
     FM291800 11002KT 6SM -RA BR BKN007 OVC025
     FM300300 00000KT 4SM BR OVC015
     FM300600 00000KT 2SM BR OVC007=



000
FTUS41 KCTP 291154
TAFJST
TAF
KJST 291154Z 2912/3012 14004KT 2SM BR OVC003
     FM291600 26004KT P6SM BKN009 OVC015
     FM292100 25005KT 4SM -RA BR OVC015
     FM300300 00000KT 1SM BR OVC003=



000
FTUS41 KCTP 291154
TAFMDT
TAF
KMDT 291154Z 2912/3012 10005KT 3SM -DZ BR BKN009 OVC013
     FM300600 35003KT 6SM BR OVC015=



000
FTUS41 KCTP 290907 AAA
TAFAOO
TAF AMD
KAOO 290907Z 2909/3006 12003KT 6SM BR OVC004
     FM291500 11004KT 4SM BR OVC007=



000
FTUS41 KCTP 290907 AAA
TAFIPT
TAF AMD
KIPT 290907Z 2909/3006 00000KT P6SM OVC024
     FM291800 11002KT 6SM -RA BR BKN007 OVC025
     FM300300 00000KT 4SM BR OVC015=



000
FTUS41 KCTP 290907 AAB
TAFJST
TAF AMD
KJST 290907Z 2909/3006 13004KT 4SM BR OVC002
     FM291600 26004KT P6SM OVC001
     FM291800 25005KT P6SM OVC015=



000
FTUS41 KCTP 290907 AAA
TAFBFD
TAF AMD
KBFD 290907Z 2909/3006 10005KT 2SM BR VCSH OVC003
     FM291500 10003KT 6SM BR OVC015
     FM291800 07002KT P6SM OVC015=



000
FTUS41 KCTP 290907 AAA
TAFMDT
TAF AMD
KMDT 290907Z 2909/3006 09004KT 2SM -DZ BR OVC007=



000
FTUS41 KCTP 290907 AAA
TAFUNV
TAF AMD
KUNV 290907Z 2909/3006 04005KT 3SM BR SCT002 OVC010
     FM291400 09003KT 2SM BR OVC007=



000
FTUS41 KCTP 290907 AAB
TAFJST
TAF AMD
KJST 290907Z 2909/3006 13004KT 4SM BR OVC002
     FM291600 26004KT P6SM OVC001
     FM291800 25005KT P6SM OVC015=



000
FTUS41 KCTP 290907 AAA
TAFMDT
TAF AMD
KMDT 290907Z 2909/3006 09004KT 2SM -DZ BR OVC007=



000
FTUS41 KCTP 290907 AAA
TAFUNV
TAF AMD
KUNV 290907Z 2909/3006 04005KT 3SM BR SCT002 OVC010
     FM291400 09003KT 2SM BR OVC007=



000
FTUS41 KCTP 290907 AAA
TAFAOO
TAF AMD
KAOO 290907Z 2909/3006 12003KT 6SM BR OVC004
     FM291500 11004KT 4SM BR OVC007=



000
FTUS41 KCTP 290907 AAA
TAFIPT
TAF AMD
KIPT 290907Z 2909/3006 00000KT P6SM OVC024
     FM291800 11002KT 6SM -RA BR BKN007 OVC025
     FM300300 00000KT 4SM BR OVC015=



000
FTUS41 KCTP 290907 AAA
TAFBFD
TAF AMD
KBFD 290907Z 2909/3006 10005KT 2SM BR VCSH OVC003
     FM291500 10003KT 6SM BR OVC015
     FM291800 07002KT P6SM OVC015=



000
FTUS41 KCTP 290735 AAA
TAFJST
TAF AMD
KJST 290735Z 2908/3006 00000KT 1/4SM FG VV002
     FM290900 VRB03KT 1/4SM FG VV001
     FM291600 26004KT P6SM OVC001
     FM291800 25005KT P6SM OVC015=



000
FTUS41 KCTP 290735 AAA
TAFJST
TAF AMD
KJST 290735Z 2908/3006 00000KT 1/4SM FG VV002
     FM290900 VRB03KT 1/4SM FG VV001
     FM291600 26004KT P6SM OVC001
     FM291800 25005KT P6SM OVC015=



000
FTUS41 KCTP 290538
TAFBFD
TAF
KBFD 290538Z 2906/3006 09004KT P6SM OVC005
     FM290800 10004KT 4SM BR VCSH OVC006
     FM291500 10003KT 6SM BR OVC015
     FM291800 07002KT P6SM OVC015=



000
FTUS41 KCTP 290538
TAFJST
TAF
KJST 290538Z 2906/3006 07004KT 1/2SM FG VV002
     FM290900 VRB03KT 1/4SM FG VV001
     FM291600 26004KT P6SM OVC001
     FM291800 25005KT P6SM OVC015=



000
FTUS41 KCTP 290538
TAFMDT
TAF
KMDT 290538Z 2906/3006 08004KT 2SM -DZ BR FEW007 OVC011
      TEMPO 2906/2909 2SM BR OVC003=



000
FTUS41 KCTP 290538
TAFAOO
TAF
KAOO 290538Z 2906/3006 07003KT 2SM BR OVC004
     FM290900 VRB03KT 1SM -DZ BR OVC001
     FM291500 11004KT 4SM BR OVC007=



000
FTUS41 KCTP 290538
TAFIPT
TAF
KIPT 290538Z 2906/3006 00000KT 6SM -RA BR FEW007 OVC027
     FM290800 VRB04KT 5SM BR OVC007=



000
FTUS41 KCTP 290538
TAFUNV
TAF
KUNV 290538Z 2906/3006 05003KT 5SM BR OVC008
     FM290800 VRB03KT 1SM BR OVC003
     FM291400 09003KT 2SM BR OVC007=



000
FTUS41 KCTP 290403 AAA
TAFAOO
TAF AMD
KAOO 290403Z 2904/2924 07004KT 2SM BR OVC003
     FM290900 VRB03KT 1SM -DZ BR OVC001
     FM291500 11004KT 4SM BR OVC007=



000
FTUS41 KCTP 290403 AAA
TAFMDT
TAF AMD
KMDT 290403Z 2904/2924 10007KT P6SM BKN009 OVC015
     FM290600 10005KT 4SM -DZ BR OVC007
      TEMPO 2906/2909 2SM BR OVC003=



000
FTUS41 KCTP 290403 AAA
TAFBFD
TAF AMD
KBFD 290403Z 2904/2924 12005KT P6SM OVC006
     FM290800 10004KT 4SM -DZ BR OVC006=



000
FTUS41 KCTP 290403 AAB
TAFJST
TAF AMD
KJST 290403Z 2904/2924 14006KT 3/4SM BR VV002
     FM290900 VRB03KT 1/4SM FG VV001
     FM291600 26004KT P6SM OVC001=



000
FTUS41 KCTP 290403 AAA
TAFUNV
TAF AMD
KUNV 290403Z 2904/2924 VRB03KT 4SM BR OVC010
     FM290800 VRB03KT 1SM BR OVC003
     FM291400 09003KT 2SM BR OVC007=



000
FTUS41 KCTP 290403 AAA
TAFIPT
TAF AMD
KIPT 290403Z 2904/2924 VRB03KT P6SM -RA SCT015 OVC025
     FM290600 VRB03KT 4SM -DZ BR OVC015
     FM290800 VRB04KT 5SM BR OVC007=



000
FTUS41 KCTP 290403 AAB
TAFJST
TAF AMD
KJST 290403Z 2904/2924 14006KT 3/4SM BR VV002
     FM290900 VRB03KT 1/4SM FG VV001
     FM291600 26004KT P6SM OVC001=



000
FTUS41 KCTP 290403 AAA
TAFAOO
TAF AMD
KAOO 290403Z 2904/2924 07004KT 2SM BR OVC003
     FM290900 VRB03KT 1SM -DZ BR OVC001
     FM291500 11004KT 4SM BR OVC007=



000
FTUS41 KCTP 290403 AAA
TAFBFD
TAF AMD
KBFD 290403Z 2904/2924 12005KT P6SM OVC006
     FM290800 10004KT 4SM -DZ BR OVC006=



000
FTUS41 KCTP 290403 AAA
TAFMDT
TAF AMD
KMDT 290403Z 2904/2924 10007KT P6SM BKN009 OVC015
     FM290600 10005KT 4SM -DZ BR OVC007
      TEMPO 2906/2909 2SM BR OVC003=



000
FTUS41 KCTP 290403 AAA
TAFUNV
TAF AMD
KUNV 290403Z 2904/2924 VRB03KT 4SM BR OVC010
     FM290800 VRB03KT 1SM BR OVC003
     FM291400 09003KT 2SM BR OVC007=



000
FTUS41 KCTP 290403 AAA
TAFIPT
TAF AMD
KIPT 290403Z 2904/2924 VRB03KT P6SM -RA SCT015 OVC025
     FM290600 VRB03KT 4SM -DZ BR OVC015
     FM290800 VRB04KT 5SM BR OVC007=



000
FTUS41 KCTP 290021 AAA
TAFJST
TAF AMD
KJST 290021Z 2900/2924 15004KT 1/2SM FG VV002
      TEMPO 2900/2903 1/4SM FG VV001
     FM290300 VRB03KT 1/4SM FG VV001
     FM291600 26004KT P6SM OVC001=



000
FTUS41 KCTP 282321
TAFIPT
TAF
KIPT 282321Z 2900/2924 VRB03KT P6SM -RA SCT015 OVC025
     FM290200 VRB03KT 4SM -DZ BR OVC015
     FM290800 VRB04KT 5SM BR OVC007=



000
FTUS41 KCTP 282321
TAFAOO
TAF
KAOO 282321Z 2900/2924 07004KT 2SM BR OVC003
     FM290300 VRB03KT 1SM -DZ BR OVC001
     FM291500 11004KT 4SM BR OVC007=



000
FTUS41 KCTP 282321
TAFJST
TAF
KJST 282321Z 2900/2924 13004KT 1SM BR OVC002
     FM290300 VRB03KT 1/4SM FG OVC001
     FM291600 26004KT P6SM OVC001=



000
FTUS41 KCTP 282321
TAFBFD
TAF
KBFD 282321Z 2900/2924 09006KT 4SM -SHRA BR SCT006 OVC015
     FM290400 10004KT 4SM -DZ BR OVC006=



000
FTUS41 KCTP 282321
TAFUNV
TAF
KUNV 282321Z 2900/2924 VRB03KT 4SM -RADZ BR OVC007
     FM290300 VRB03KT 1SM BR OVC003
     FM291400 09003KT 2SM BR OVC007=



000
FTUS41 KCTP 282321
TAFMDT
TAF
KMDT 282321Z 2900/2924 08006KT 5SM -DZ BR BKN008 OVC012
      TEMPO 2900/2902 6SM BR OVC015
     FM290300 10005KT 4SM -DZ BR OVC007
      TEMPO 2905/2909 2SM BR OVC003=



000
FTUS41 KCTP 282145 AAC
TAFJST
TAF AMD
KJST 282145Z 2822/2918 14007KT 6SM BR OVC005
     FM290000 11004KT 1SM -DZ BR OVC002=



000
FTUS41 KCTP 282145 AAA
TAFBFD
TAF AMD
KBFD 282145Z 2822/2918 12010KT P6SM -RA SCT045 OVC050
     FM290000 09005KT 2SM -RA BR OVC015
     FM290400 11004KT 4SM -DZ BR BKN006 OVC015=



000
FTUS41 KCTP 282145 AAA
TAFAOO
TAF AMD
KAOO 282145Z 2822/2918 08006KT 4SM -RADZ BR OVC005
     FM290000 11003KT 1SM -DZ BR OVC007=



000
FTUS41 KCTP 282145 AAB
TAFIPT
TAF AMD
KIPT 282145Z 2822/2918 VRB03KT P6SM -RA SCT045 OVC070
     FM290100 11004KT 4SM -DZ BR BKN015 OVC025=



000
FTUS41 KCTP 282145 AAA
TAFUNV
TAF AMD
KUNV 282145Z 2822/2918 06004KT 4SM -RADZ BR BKN008 OVC012
     FM290000 07003KT 4SM -RADZ BR OVC007=



000
FTUS41 KCTP 282145 AAB
TAFMDT
TAF AMD
KMDT 282145Z 2822/2918 05006KT 6SM -SHRA BR BKN008 OVC012
     FM290300 10007KT 4SM -DZ BR OVC007=



000
FTUS41 KCTP 281948 AAA
TAFMDT
TAF AMD
KMDT 281948Z 2820/2918 09007KT 4SM -RA BR OVC015
     FM290300 10007KT 4SM -DZ BR OVC007=



000
FTUS41 KCTP 281945 AAA
TAFIPT
TAF AMD
KIPT 281945Z 2820/2918 06004KT P6SM -RA OVC060
     FM282130 09005KT 5SM -RA BR OVC030
     FM290100 11004KT 4SM -DZ BR BKN015 OVC025=



000
FTUS41 KCTP 281801 RRA
TAFJST
TAF
KJST 281801Z 2818/2918 10006KT 3SM -RA OVC009
      TEMPO 2818/2822 1SM RADZ BR OVC002
     FM290000 11004KT 1SM -DZ BR OVC002=



000
FTUS41 KCTP 281720
TAFMDT
TAF
KMDT 281720Z 2818/2918 06005KT P6SM -RA SCT020 OVC040
     FM281900 11004KT 4SM -RA BR OVC025
     FM282000 09007KT 4SM -RA BR OVC015
     FM290300 10007KT 4SM -DZ BR OVC007=



000
FTUS41 KCTP 281720
TAFIPT
TAF
KIPT 281720Z 2818/2918 01004KT P6SM OVC100
     FM281900 09005KT 4SM -RA BR OVC025
     FM282100 11004KT 4SM -RA BR BKN015 OVC025=



000
FTUS41 KCTP 281720
TAFBFD
TAF
KBFD 281720Z 2818/2918 09005KT P6SM VCSH OVC080
     FM282000 10008KT 4SM -RA OVC025
     FM282200 09005KT 2SM -RA BR OVC015
     FM290400 11004KT 4SM -DZ BR BKN006 OVC015=



000
FTUS41 KCTP 281720
TAFAOO
TAF
KAOO 281720Z 2818/2918 06006KT 3SM -RADZ BR OVC015
      TEMPO 2818/2820 2SM RA BR OVC008
     FM282000 09006KT 3SM -RA BR OVC007
     FM290000 11003KT 1SM -DZ BR OVC007=



000
FTUS41 KCTP 281720
TAFUNV
TAF
KUNV 281720Z 2818/2918 06004KT 6SM -RA OVC035
     FM281900 06005KT 6SM -RADZ BR OVC025
     FM282000 08004KT 3SM -RADZ BR OVC015
     FM290000 07003KT 4SM -RADZ BR OVC007=



000
FTUS41 KCTP 281623 AAB
TAFMDT
TAF AMD
KMDT 281623Z 2816/2912 06005KT P6SM -RA SCT020 OVC040
     FM281700 11004KT 4SM -RA BR OVC025
     FM281900 09007KT 4SM -RA BR OVC015
     FM290300 10007KT 4SM -DZ BR OVC007=



000
FTUS41 KCTP 281623 AAB
TAFMDT
TAF AMD
KMDT 281623Z 2816/2912 06005KT P6SM -RA SCT020 OVC040
     FM281700 11004KT 4SM -RA BR OVC025
     FM281900 09007KT 4SM -RA BR OVC015
     FM290300 10007KT 4SM -DZ BR OVC007=



000
FTUS41 KCTP 281622 AAC
TAFUNV
TAF AMD
KUNV 281622Z 2816/2912 06004KT 6SM -RA OVC035
     FM281700 06005KT 6SM -RA BR OVC025
     FM281800 08004KT 3SM -RA BR OVC015
     FM282200 07003KT 4SM -RA BR OVC007=



000
FTUS41 KCTP 281622 AAC
TAFUNV
TAF AMD
KUNV 281622Z 2816/2912 06004KT 6SM -RA OVC035
     FM281700 06005KT 6SM -RA BR OVC025
     FM281800 08004KT 3SM -RA BR OVC015
     FM282200 07003KT 4SM -RA BR OVC007=



000
FTUS41 KCTP 281621 AAC
TAFAOO
TAF AMD
KAOO 281621Z 2816/2912 06006KT 3SM -RA BR OVC015
      TEMPO 2816/2819 2SM RA BR OVC008
     FM281900 09006KT 2SM -RA BR OVC007
     FM290000 11003KT 1SM -DZ BR OVC007=



000
FTUS41 KCTP 281519 AAB
TAFAOO
TAF AMD
KAOO 281519Z 2815/2912 06006KT 3SM -RA BR OVC025
      TEMPO 2815/2819 2SM RA BR OVC008
     FM281900 09006KT 2SM -RA BR OVC007
     FM290000 11003KT 1SM -DZ BR OVC007=



000
FTUS41 KCTP 281519 AAA
TAFMDT
TAF AMD
KMDT 281519Z 2815/2912 06005KT P6SM -RA SCT020 OVC040
     FM281600 11004KT 3SM -RA BR OVC025
     FM281900 09007KT 4SM -RA BR OVC015
     FM290300 10007KT 4SM -DZ BR OVC007=



000
FTUS41 KCTP 281519 AAB
TAFUNV
TAF AMD
KUNV 281519Z 2815/2912 06004KT P6SM VCSH OVC035
     FM281600 06005KT 6SM -RA BR OVC025
     FM281800 08004KT 3SM -RA BR OVC015
     FM282200 07003KT 4SM -RA BR OVC007=



000
FTUS41 KCTP 281519 AAA
TAFIPT
TAF AMD
KIPT 281519Z 2815/2912 01004KT P6SM OVC100
     FM281900 09005KT 4SM -RA BR OVC025
     FM282100 11004KT 4SM -RA BR BKN015 OVC025=



000
FTUS41 KCTP 281519 AAB
TAFJST
TAF AMD
KJST 281519Z 2815/2912 10006KT 3SM -RA OVC010
      TEMPO 2815/2819 1SM RA BR OVC008
     FM290000 11004KT 1SM -DZ BR OVC002=



000
FTUS41 KCTP 281519 AAA
TAFBFD
TAF AMD
KBFD 281519Z 2815/2912 09005KT P6SM VCSH BKN100
     FM281800 10011KT 4SM -RA OVC025
     FM282100 09005KT 2SM -RA BR OVC015
     FM290400 11004KT 4SM -DZ BR BKN006 OVC015=



000
FTUS41 KCTP 281519 AAB
TAFAOO
TAF AMD
KAOO 281519Z 2815/2912 06006KT 3SM -RA BR OVC025
      TEMPO 2815/2819 2SM RA BR OVC008
     FM281900 09006KT 2SM -RA BR OVC007
     FM290000 11003KT 1SM -DZ BR OVC007=



000
FTUS41 KCTP 281519 AAB
TAFJST
TAF AMD
KJST 281519Z 2815/2912 10006KT 3SM -RA OVC010
      TEMPO 2815/2819 1SM RA BR OVC008
     FM290000 11004KT 1SM -DZ BR OVC002=



000
FTUS41 KCTP 281519 AAA
TAFMDT
TAF AMD
KMDT 281519Z 2815/2912 06005KT P6SM -RA SCT020 OVC040
     FM281600 11004KT 3SM -RA BR OVC025
     FM281900 09007KT 4SM -RA BR OVC015
     FM290300 10007KT 4SM -DZ BR OVC007=



000
FTUS41 KCTP 281519 AAA
TAFIPT
TAF AMD
KIPT 281519Z 2815/2912 01004KT P6SM OVC100
     FM281900 09005KT 4SM -RA BR OVC025
     FM282100 11004KT 4SM -RA BR BKN015 OVC025=



000
FTUS41 KCTP 281519 AAA
TAFBFD
TAF AMD
KBFD 281519Z 2815/2912 09005KT P6SM VCSH BKN100
     FM281800 10011KT 4SM -RA OVC025
     FM282100 09005KT 2SM -RA BR OVC015
     FM290400 11004KT 4SM -DZ BR BKN006 OVC015=



000
FTUS41 KCTP 281519 AAB
TAFUNV
TAF AMD
KUNV 281519Z 2815/2912 06004KT P6SM VCSH OVC035
     FM281600 06005KT 6SM -RA BR OVC025
     FM281800 08004KT 3SM -RA BR OVC015
     FM282200 07003KT 4SM -RA BR OVC007=



000
FTUS41 KCTP 281325 CCB
TAFUNV
TAF COR
KUNV 281325Z 2813/2912 06004KT P6SM VCSH OVC035
     FM281500 06005KT 6SM -RA BR OVC025
     FM281800 08004KT 3SM -RA BR OVC015
     FM282200 07003KT 4SM -RA BR OVC007=



000
FTUS41 KCTP 281322 AAA
TAFUNV
TAF AMD
KUNV 281322Z 2813/2912 06004KT P6SM VCSH OVC025
     FM281500 06005KT 6SM -RA BR OVC025
     FM281800 08004KT 3SM -RA BR OVC015
     FM282200 07003KT 4SM -RA BR OVC007=



000
FTUS41 KCTP 281322 CCA
TAFUNV
TAF COR
KUNV 281322Z 2813/2912 06004KT P6SM VCSH OVC035
     FM281500 06005KT 6SM -RA BR OVC025
     FM281800 08004KT 3SM -RA BR OVC015
     FM282200 07003KT 4SM -RA BR OVC007=



000
FTUS41 KCTP 281321 AAA
TAFAOO
TAF AMD
KAOO 281321Z 2813/2912 06006KT 3SM -RA BR OVC025
     FM281500 08006KT 2SM -RA BR OVC015
     FM281800 09006KT 2SM -RA BR OVC007
     FM290000 11003KT 1SM -DZ BR OVC007=



000
FTUS41 KCTP 281319 AAA
TAFJST
TAF AMD
KJST 281319Z 2813/2912 10006KT 2SM -RA OVC004
      TEMPO 2813/2817 1SM RA BR OVC008
     FM290000 11004KT 1SM -DZ BR OVC002=



000
FTUS41 KCTP 281129
TAFUNV
TAF
KUNV 281129Z 2812/2912 04006KT P6SM SKC
     FM281300 06004KT P6SM OVC025
     FM281600 09005KT 3SM -RA BR BKN015 OVC025
     FM290000 00000KT 2SM -RA BR OVC015=



000
FTUS41 KCTP 281129
TAFMDT
TAF
KMDT 281129Z 2812/2912 06005KT 6SM BR SCT020 OVC200
     FM281600 11004KT 3SM -RA BR OVC015=



000
FTUS41 KCTP 281129
TAFIPT
TAF
KIPT 281129Z 2812/2912 01004KT P6SM SKC
     FM281500 09005KT 4SM BR OVC025
     FM282100 11004KT 4SM -RA BR BKN015 OVC025=



000
FTUS41 KCTP 281129
TAFJST
TAF
KJST 281129Z 2812/2912 10006KT 4SM -RA SCT008 OVC025
      TEMPO 2813/2814 BKN008
     FM281400 12006KT 2SM -RA BR OVC007
     FM290600 12004KT 4SM BR VCSH OVC007=



000
FTUS41 KCTP 281129
TAFAOO
TAF
KAOO 281129Z 2812/2912 06006KT P6SM OVC010
     FM281400 09006KT 2SM -RA BR OVC007
     FM290000 11003KT 4SM BR OVC007=



000
FTUS41 KCTP 281129
TAFAOO
TAF
KAOO 281129Z 2812/2912 06006KT P6SM OVC010
     FM281400 09006KT 2SM -RA BR OVC007
     FM290000 11003KT 4SM BR OVC007=



000
FTUS41 KCTP 281129
TAFJST
TAF
KJST 281129Z 2812/2912 10006KT 4SM -RA SCT008 OVC025
      TEMPO 2813/2814 BKN008
     FM281400 12006KT 2SM -RA BR OVC007
     FM290600 12004KT 4SM BR VCSH OVC007=



000
FTUS41 KCTP 281129
TAFUNV
TAF
KUNV 281129Z 2812/2912 04006KT P6SM SKC
     FM281300 06004KT P6SM OVC025
     FM281600 09005KT 3SM -RA BR BKN015 OVC025
     FM290000 00000KT 2SM -RA BR OVC015=



000
FTUS41 KCTP 281129
TAFIPT
TAF
KIPT 281129Z 2812/2912 01004KT P6SM SKC
     FM281500 09005KT 4SM BR OVC025
     FM282100 11004KT 4SM -RA BR BKN015 OVC025=



000
FTUS41 KCTP 281129
TAFBFD
TAF
KBFD 281129Z 2812/2912 09005KT P6SM SKC
     FM281600 10011KT 4SM -RA OVC025
     FM282100 09005KT 2SM -RA BR OVC015
     FM290300 11004KT 4SM BR OVC015=



000
FTUS41 KCTP 281129
TAFBFD
TAF
KBFD 281129Z 2812/2912 09005KT P6SM SKC
     FM281600 10011KT 4SM -RA OVC025
     FM282100 09005KT 2SM -RA BR OVC015
     FM290300 11004KT 4SM BR OVC015=



000
FTUS41 KCTP 281129
TAFMDT
TAF
KMDT 281129Z 2812/2912 06005KT 6SM BR SCT020 OVC200
     FM281600 11004KT 3SM -RA BR OVC015=



000
FTUS41 KCTP 280951 AAA
TAFBFD
TAF AMD
KBFD 280951Z 2810/2906 08005KT P6SM SKC
     FM281200 10010KT P6SM OVC050
     FM281500 10011KT P6SM -RA OVC025
     FM290300 11004KT 4SM BR OVC015=



000
FTUS41 KCTP 280951 AAB
TAFJST
TAF AMD
KJST 280951Z 2810/2906 07006KT P6SM BKN027
     FM281200 12005KT 4SM -RA OVC007=



000
FTUS41 KCTP 280951 AAA
TAFIPT
TAF AMD
KIPT 280951Z 2810/2906 34004KT P6SM SKC
     FM281500 09005KT 4SM BR OVC025
     FM282100 11004KT 4SM -RA BR BKN015 OVC025=



000
FTUS41 KCTP 280951 AAA
TAFUNV
TAF AMD
KUNV 280951Z 2810/2906 04006KT P6SM SKC
     FM281300 06004KT P6SM OVC025
     FM281500 09005KT 3SM -RA BR OVC008=



000
FTUS41 KCTP 280951 AAA
TAFMDT
TAF AMD
KMDT 280951Z 2810/2906 00000KT 5SM BR FEW014 OVC200
     FM281600 11004KT 3SM -RA BR OVC015=



000
FTUS41 KCTP 280951 AAB
TAFAOO
TAF AMD
KAOO 280951Z 2810/2906 06003KT 6SM BR BKN007 OVC016
     FM281400 09006KT 2SM -RA BR OVC007
     FM290000 11003KT 4SM BR OVC007=



000
FTUS41 KCTP 280733 AAA
TAFJST
TAF AMD
KJST 280733Z 2808/2906 00000KT P6SM SKC
     FM281200 12005KT 4SM -RA OVC007=



000
FTUS41 KCTP 280733 AAA
TAFJST
TAF AMD
KJST 280733Z 2808/2906 00000KT P6SM SKC
     FM281200 12005KT 4SM -RA OVC007=



000
FTUS41 KCTP 280651 AAA
TAFAOO
TAF AMD
KAOO 280651Z 2807/2906 07005KT 3SM BR BKN009 BKN013
     FM281000 VRB03KT 4SM BR OVC007=



000
FTUS41 KCTP 280541
TAFAOO
TAF
KAOO 280541Z 2806/2906 07003KT 6SM BR SKC
     FM280700 08003KT 6SM BR OVC015
     FM281000 VRB03KT 4SM BR OVC007=



000
FTUS41 KCTP 280541
TAFUNV
TAF
KUNV 280541Z 2806/2906 05006KT P6SM SKC
     FM281300 06004KT P6SM OVC025
     FM281500 09005KT 3SM -RA BR OVC008=



000
FTUS41 KCTP 280541
TAFJST
TAF
KJST 280541Z 2806/2906 00000KT P6SM SKC
     FM280700 08004KT 4SM BR OVC007
     FM281200 12005KT 4SM -RA OVC007=



000
FTUS41 KCTP 280541
TAFIPT
TAF
KIPT 280541Z 2806/2906 00000KT P6SM SKC
     FM281500 09005KT 4SM BR OVC025
     FM282100 11004KT 4SM -RA BR BKN015 OVC025=



000
FTUS41 KCTP 280541
TAFBFD
TAF
KBFD 280541Z 2806/2906 11004KT P6SM SKC
     FM281200 10010KT P6SM OVC050
     FM281500 10011KT P6SM -RA OVC025
     FM290300 11004KT 4SM BR OVC015=



000
FTUS41 KCTP 280541
TAFMDT
TAF
KMDT 280541Z 2806/2906 VRB03KT 5SM BR OVC012
     FM280800 05003KT 4SM BR OVC025
     FM281600 11004KT 3SM -RA BR OVC015=



000
FTUS41 KCTP 280326 AAA
TAFBFD
TAF AMD
KBFD 280326Z 2803/2824 36007KT P6SM BKN250
     FM281200 10010KT P6SM OVC050
     FM281500 10011KT P6SM -RA OVC025=



000
FTUS41 KCTP 280326 AAA
TAFJST
TAF AMD
KJST 280326Z 2803/2824 24005KT P6SM SCT250
     FM280700 08004KT 4SM BR OVC007
     FM281200 12005KT 4SM -RA OVC007=



000
FTUS41 KCTP 280326 AAA
TAFAOO
TAF AMD
KAOO 280326Z 2803/2824 VRB04KT P6SM SCT250
     FM280700 08003KT 6SM BR OVC015
     FM281000 VRB03KT 4SM BR OVC007=



000
FTUS41 KCTP 280326 AAA
TAFMDT
TAF AMD
KMDT 280326Z 2803/2824 VRB04KT 6SM BR OVC012
     FM280800 05003KT 4SM BR OVC025
     FM281600 11004KT 3SM -RA BR OVC015=



000
FTUS41 KCTP 280326 AAA
TAFUNV
TAF AMD
KUNV 280326Z 2803/2824 00000KT P6SM SCT250
     FM281300 06004KT P6SM OVC025
     FM281500 09005KT 3SM -RA BR OVC008=



000
FTUS41 KCTP 280326 AAA
TAFIPT
TAF AMD
KIPT 280326Z 2803/2824 VRB03KT P6SM SCT250
     FM281500 09005KT 4SM -RA BR OVC025=



000
FTUS41 KCTP 272325
TAFAOO
TAF
KAOO 272325Z 2800/2824 VRB03KT P6SM SKC
     FM280400 08003KT 6SM BR OVC015
     FM280600 VRB03KT 4SM BR OVC007=



000
FTUS41 KCTP 272325
TAFJST
TAF
KJST 272325Z 2800/2824 VRB04KT P6SM SKC
     FM280500 08004KT 4SM BR OVC007
     FM281200 12005KT 4SM -RA OVC007=



000
FTUS41 KCTP 272325
TAFMDT
TAF
KMDT 272325Z 2800/2824 VRB03KT 5SM BR OVC012
     FM280200 10005KT P6SM SCT020 OVC040
     FM280800 05003KT 4SM BR OVC025
     FM281600 11004KT 3SM -RA BR OVC015=



000
FTUS41 KCTP 272325
TAFUNV
TAF
KUNV 272325Z 2800/2824 18008KT P6SM SKC
     FM281300 06004KT P6SM OVC025
     FM281500 09005KT 3SM -RA BR OVC008=



000
FTUS41 KCTP 272325
TAFIPT
TAF
KIPT 272325Z 2800/2824 VRB05KT P6SM SKC
     FM281500 09005KT 4SM -RA BR OVC025=



000
FTUS41 KCTP 272325
TAFBFD
TAF
KBFD 272325Z 2800/2824 36007KT P6SM SKC
     FM281200 10010KT P6SM OVC050
     FM281500 10011KT P6SM -RA OVC025=



000
FTUS41 KCTP 272150 AAB
TAFJST
TAF AMD
KJST 272150Z 2722/2818 VRB04KT P6SM OVC030
     FM272300 VRB04KT P6SM SCT025 BKN035
     FM280500 08004KT 4SM BR OVC007
     FM281200 12005KT 4SM -RA OVC007=



000
FTUS41 KCTP 272150 AAA
TAFBFD
TAF AMD
KBFD 272150Z 2722/2818 03007KT P6SM SKC
     FM281200 10010KT P6SM OVC050
     FM281500 10011KT P6SM -RA OVC025=



000
FTUS41 KCTP 272150 AAA
TAFMDT
TAF AMD
KMDT 272150Z 2722/2818 02006KT 4SM BR OVC008
     FM280000 10005KT P6SM SCT020 OVC040
     FM280800 05003KT 4SM BR OVC025
     FM281600 11004KT 3SM -RA BR OVC015=



000
FTUS41 KCTP 272150 AAA
TAFUNV
TAF AMD
KUNV 272150Z 2722/2818 22006KT P6SM FEW050 SCT250
     FM281300 06004KT P6SM OVC025
     FM281500 09005KT 3SM -RA BR OVC008=



000
FTUS41 KCTP 272150 AAB
TAFIPT
TAF AMD
KIPT 272150Z 2722/2818 VRB05KT P6SM SKC
     FM281500 09005KT 4SM -RA BR OVC025=



000
FTUS41 KCTP 272150 AAB
TAFAOO
TAF AMD
KAOO 272150Z 2722/2818 VRB03KT P6SM BKN035
     FM280400 08003KT 6SM BR OVC015
     FM280600 VRB03KT 4SM BR OVC007=



000
FTUS41 KCTP 271920 AAA
TAFIPT
TAF AMD
KIPT 271920Z 2719/2818 VRB03KT P6SM SKC
     FM281500 09005KT 4SM -RA BR OVC025=



000
FTUS41 KCTP 271919 AAA
TAFAOO
TAF AMD
KAOO 271919Z 2719/2818 VRB03KT P6SM SCT018 BKN035
     FM280400 08003KT 6SM BR OVC015
     FM280600 VRB03KT 4SM BR OVC007=



000
FTUS41 KCTP 271919 AAA
TAFAOO
TAF AMD
KAOO 271919Z 2719/2818 VRB03KT P6SM SCT018 BKN035
     FM280400 08003KT 6SM BR OVC015
     FM280600 VRB03KT 4SM BR OVC007=



000
FTUS41 KCTP 271917 AAA
TAFJST
TAF AMD
KJST 271917Z 2719/2818 VRB04KT P6SM OVC015
     FM272000 VRB03KT P6SM OVC020
     FM272200 VRB04KT P6SM SCT025 BKN035
     FM280500 08004KT 4SM BR OVC007
     FM281200 12005KT 4SM -RA OVC007=



000
FTUS41 KCTP 271801 CCA
TAFMDT
TAF COR
KMDT 271801Z 2718/2818 02006KT 2SM -DZ BR BKN008 OVC012
     FM272300 10005KT P6SM SCT020 OVC040
     FM280800 05003KT 4SM BR OVC025
     FM281600 11004KT 3SM -RA BR OVC015=



000
FTUS41 KCTP 271745
TAFJST
TAF
KJST 271745Z 2718/2818 VRB03KT P6SM BKN020 OVC040
     FM280500 08004KT 4SM BR OVC007
     FM281200 12005KT 4SM -RA OVC007=



000
FTUS41 KCTP 271745
TAFMDT
TAF
KMDT 271745Z 2718/2818 02006KT 3SM BR OVC012
     FM272300 10005KT P6SM SCT020 OVC040
     FM280800 05003KT 4SM BR OVC025
     FM281600 11004KT 3SM -RA BR OVC015=



000
FTUS41 KCTP 271745
TAFUNV
TAF
KUNV 271745Z 2718/2818 04006KT P6SM SCT025 BKN050
     FM281300 06004KT P6SM OVC025
     FM281500 09005KT 3SM -RA BR OVC008=



000
FTUS41 KCTP 271745
TAFIPT
TAF
KIPT 271745Z 2718/2818 VRB03KT P6SM SCT035
     FM281500 09005KT 4SM -RA BR OVC025=



000
FTUS41 KCTP 271745
TAFBFD
TAF
KBFD 271745Z 2718/2818 VRB03KT P6SM SKC
     FM281200 10010KT P6SM OVC050
     FM281500 10011KT P6SM -RA OVC025=



000
FTUS41 KCTP 271745
TAFAOO
TAF
KAOO 271745Z 2718/2818 VRB03KT P6SM BKN018 OVC045
     FM272200 06003KT P6SM SCT025 BKN050
     FM280400 08003KT 6SM BR OVC015
     FM280600 VRB03KT 4SM BR OVC007=



000
FTUS41 KCTP 271616 AAB
TAFAOO
TAF AMD
KAOO 271616Z 2716/2812 03006KT P6SM BKN018 OVC045
     FM272000 06003KT P6SM SCT025 BKN050=



000
FTUS41 KCTP 271529 AAA
TAFBFD
TAF AMD
KBFD 271529Z 2715/2812 VRB03KT P6SM SKC=



000
FTUS41 KCTP 271529 AAA
TAFMDT
TAF AMD
KMDT 271529Z 2715/2812 02006KT 3SM BR OVC012
     FM271900 10005KT P6SM BKN020 OVC040=



000
FTUS41 KCTP 271529 AAB
TAFUNV
TAF AMD
KUNV 271529Z 2715/2812 04006KT P6SM SCT025=



000
FTUS41 KCTP 271529 AAA
TAFAOO
TAF AMD
KAOO 271529Z 2715/2812 03006KT P6SM BKN020 BKN045
     FM271700 06003KT P6SM SCT025 BKN050=



000
FTUS41 KCTP 271529 AAA
TAFIPT
TAF AMD
KIPT 271529Z 2715/2812 34004KT P6SM SCT035=



000
FTUS41 KCTP 271529 AAC
TAFJST
TAF AMD
KJST 271529Z 2715/2812 06005KT P6SM SCT015 OVC040
     FM280600 14002KT 3SM BR BKN025=



000
FTUS41 KCTP 271529 AAA
TAFIPT
TAF AMD
KIPT 271529Z 2715/2812 34004KT P6SM SCT035=



000
FTUS41 KCTP 271529 AAA
TAFMDT
TAF AMD
KMDT 271529Z 2715/2812 02006KT 3SM BR OVC012
     FM271900 10005KT P6SM BKN020 OVC040=



000
FTUS41 KCTP 271529 AAA
TAFAOO
TAF AMD
KAOO 271529Z 2715/2812 03006KT P6SM BKN020 BKN045
     FM271700 06003KT P6SM SCT025 BKN050=



000
FTUS41 KCTP 271529 AAA
TAFBFD
TAF AMD
KBFD 271529Z 2715/2812 VRB03KT P6SM SKC=



000
FTUS41 KCTP 271529 AAC
TAFJST
TAF AMD
KJST 271529Z 2715/2812 06005KT P6SM SCT015 OVC040
     FM280600 14002KT 3SM BR BKN025=



000
FTUS41 KCTP 271529 AAB
TAFUNV
TAF AMD
KUNV 271529Z 2715/2812 04006KT P6SM SCT025=



000
FTUS41 KCTP 271405 AAA
TAFUNV
TAF AMD
KUNV 271405Z 2714/2812 04006KT P6SM SCT025=



000
FTUS41 KCTP 271404 AAB
TAFJST
TAF AMD
KJST 271404Z 2714/2812 06005KT P6SM SCT015 OVC050
     FM280600 14002KT 3SM BR BKN025=



000
FTUS41 KCTP 271246 AAA
TAFJST
TAF AMD
KJST 271246Z 2713/2812 06005KT P6SM BKN009 BKN040
     FM271500 02004KT P6SM BKN025 OVC050
     FM280600 14002KT 3SM BR BKN025=



000
FTUS41 KCTP 271246 AAA
TAFJST
TAF AMD
KJST 271246Z 2713/2812 06005KT P6SM BKN009 BKN040
     FM271500 02004KT P6SM BKN025 OVC050
     FM280600 14002KT 3SM BR BKN025=



000
FTUS41 KCTP 271150
TAFJST
TAF
KJST 271150Z 2712/2812 06005KT P6SM BKN040
     FM280600 14002KT 3SM BR BKN025=



000
FTUS41 KCTP 271150
TAFIPT
TAF
KIPT 271150Z 2712/2812 34004KT P6SM SCT020 BKN250=



000
FTUS41 KCTP 271150
TAFAOO
TAF
KAOO 271150Z 2712/2812 03006KT P6SM BKN045=



000
FTUS41 KCTP 271150
TAFUNV
TAF
KUNV 271150Z 2712/2812 04006KT P6SM BKN025 BKN250
     FM271600 04004KT P6SM BKN035=



000
FTUS41 KCTP 271150
TAFMDT
TAF
KMDT 271150Z 2712/2812 02006KT P6SM BKN017 BKN250
     FM271900 10005KT P6SM BKN040=



000
FTUS41 KCTP 271150
TAFBFD
TAF
KBFD 271150Z 2712/2812 VRB03KT P6SM BKN250=



000
FTUS41 KCTP 271150
TAFIPT
TAF
KIPT 271150Z 2712/2812 34004KT P6SM SCT020 BKN250=



000
FTUS41 KCTP 271150
TAFBFD
TAF
KBFD 271150Z 2712/2812 VRB03KT P6SM BKN250=



000
FTUS41 KCTP 271150
TAFUNV
TAF
KUNV 271150Z 2712/2812 04006KT P6SM BKN025 BKN250
     FM271600 04004KT P6SM BKN035=



000
FTUS41 KCTP 271150
TAFMDT
TAF
KMDT 271150Z 2712/2812 02006KT P6SM BKN017 BKN250
     FM271900 10005KT P6SM BKN040=



000
FTUS41 KCTP 271150
TAFAOO
TAF
KAOO 271150Z 2712/2812 03006KT P6SM BKN045=



000
FTUS41 KCTP 271150
TAFJST
TAF
KJST 271150Z 2712/2812 06005KT P6SM BKN040
     FM280600 14002KT 3SM BR BKN025=



000
FTUS41 KCTP 271004 AAC
TAFUNV
TAF AMD
KUNV 271004Z 2710/2806 04006KT P6SM BKN025 BKN250
     FM271400 04004KT P6SM BKN035=



000
FTUS41 KCTP 271003 AAB
TAFMDT
TAF AMD
KMDT 271003Z 2710/2806 02006KT P6SM BKN017 BKN250
     FM271400 05004KT P6SM BKN030 BKN250
     FM271900 10005KT P6SM BKN040=



000
FTUS41 KCTP 271003 AAB
TAFMDT
TAF AMD
KMDT 271003Z 2710/2806 02006KT P6SM BKN017 BKN250
     FM271400 05004KT P6SM BKN030 BKN250
     FM271900 10005KT P6SM BKN040=



000
FTUS41 KCTP 271003 AAB
TAFIPT
TAF AMD
KIPT 271003Z 2710/2806 34004KT P6SM BKN020 BKN250
     FM271200 34005KT P6SM SCT250=



000
FTUS41 KCTP 271003 AAB
TAFIPT
TAF AMD
KIPT 271003Z 2710/2806 34004KT P6SM BKN020 BKN250
     FM271200 34005KT P6SM SCT250=



000
FTUS41 KCTP 270912 AAB
TAFBFD
TAF AMD
KBFD 270912Z 2709/2806 02004KT P6SM SCT007 BKN250
     FM271300 03006KT P6SM SKC=



000
FTUS41 KCTP 270912 AAA
TAFAOO
TAF AMD
KAOO 270912Z 2709/2806 03008KT P6SM BKN045
     FM271030 02005KT P6SM OVC025
     FM271800 02004KT P6SM BKN035=



000
FTUS41 KCTP 270912 AAA
TAFJST
TAF AMD
KJST 270912Z 2709/2806 06005KT P6SM OVC040
     FM271030 04006KT P6SM OVC018
     FM271800 35006KT P6SM OVC025
     FM272200 01006KT P6SM BKN035=



000
FTUS41 KCTP 270912 AAB
TAFUNV
TAF AMD
KUNV 270912Z 2709/2806 04006KT P6SM SCT025 BKN250
     FM271400 04004KT P6SM BKN035=



000
FTUS41 KCTP 270912 AAA
TAFMDT
TAF AMD
KMDT 270912Z 2709/2806 05004KT P6SM BKN030 BKN250
     FM271900 10005KT P6SM BKN040=



000
FTUS41 KCTP 270912 AAA
TAFIPT
TAF AMD
KIPT 270912Z 2709/2806 34004KT P6SM BKN250
     FM271200 34005KT P6SM SCT250=



000
FTUS41 KCTP 270740 AAA
TAFUNV
TAF AMD
KUNV 270740Z 2708/2806 04006KT P6SM SCT025
     FM271000 04006KT P6SM BKN025
     FM271800 04004KT P6SM BKN035=



000
FTUS41 KCTP 270739 AAA
TAFBFD
TAF AMD
KBFD 270739Z 2708/2806 04006KT P6SM OVC007
     FM271300 05006KT P6SM SKC=



000
FTUS41 KCTP 270739 AAA
TAFBFD
TAF AMD
KBFD 270739Z 2708/2806 04006KT P6SM OVC007
     FM271300 05006KT P6SM SKC=



000
FTUS41 KCTP 270539
TAFBFD
TAF
KBFD 270539Z 2706/2806 04006KT P6SM OVC005
     FM271300 05006KT P6SM SKC=



000
FTUS41 KCTP 270539
TAFAOO
TAF
KAOO 270539Z 2706/2806 02010KT P6SM BKN050
     FM270900 01004KT P6SM OVC025
     FM271800 02004KT P6SM BKN035=



000
FTUS41 KCTP 270539
TAFJST
TAF
KJST 270539Z 2706/2806 32005KT P6SM OVC040
     FM270800 01006KT P6SM OVC015
     FM271000 01006KT P6SM OVC008
     FM271500 35006KT P6SM OVC015
     FM272200 04006KT P6SM BKN035=



000
FTUS41 KCTP 270539
TAFIPT
TAF
KIPT 270539Z 2706/2806 02006KT P6SM SCT025 BKN250
     FM271200 34005KT P6SM SKC=



000
FTUS41 KCTP 270539
TAFUNV
TAF
KUNV 270539Z 2706/2806 06008KT P6SM OVC019
     FM271000 04006KT P6SM OVC025
     FM271800 04004KT P6SM BKN035=



000
FTUS41 KCTP 270539
TAFMDT
TAF
KMDT 270539Z 2706/2806 03007KT P6SM BKN030 BKN250
     FM271800 10005KT P6SM BKN040=



000
FTUS41 KCTP 270511 AAB
TAFUNV
TAF AMD
KUNV 270511Z 2705/2724 06008KT P6SM BKN019
     FM271000 04004KT P6SM BKN025 OVC035
     FM271300 04006KT P6SM SCT250=



000
FTUS41 KCTP 270510 AAB
TAFAOO
TAF AMD
KAOO 270510Z 2705/2724 02011KT P6SM BKN050 OVC250
     FM270900 01006KT P6SM OVC025
     FM271300 02007KT P6SM BKN050=



000
FTUS41 KCTP 270332 AAA
TAFBFD
TAF AMD
KBFD 270332Z 2704/2724 04006KT P6SM OVC003
     FM271300 06007KT P6SM SKC=



000
FTUS41 KCTP 270332 AAA
TAFJST
TAF AMD
KJST 270332Z 2704/2724 31008KT P6SM SCT060 OVC100
     FM270700 34006KT P6SM OVC007
     FM271300 07005KT P6SM OVC003=



000
FTUS41 KCTP 270332 AAA
TAFAOO
TAF AMD
KAOO 270332Z 2704/2724 34005KT P6SM OVC250
     FM270900 34006KT P6SM OVC025
     FM271300 02007KT P6SM BKN050=



000
FTUS41 KCTP 270332 AAA
TAFMDT
TAF AMD
KMDT 270332Z 2704/2724 06008KT P6SM BKN080 BKN250
     FM270600 36008KT P6SM OVC050
     FM271300 01009KT P6SM SCT250=



000
FTUS41 KCTP 270332 AAA
TAFIPT
TAF AMD
KIPT 270332Z 2704/2724 01006KT P6SM SKC
     FM270800 34006KT P6SM BKN250
     FM271300 32007KT P6SM SKC=



000
FTUS41 KCTP 270332 AAA
TAFIPT
TAF AMD
KIPT 270332Z 2704/2724 01006KT P6SM SKC
     FM270800 34006KT P6SM BKN250
     FM271300 32007KT P6SM SKC=



000
FTUS41 KCTP 270332 AAA
TAFMDT
TAF AMD
KMDT 270332Z 2704/2724 06008KT P6SM BKN080 BKN250
     FM270600 36008KT P6SM OVC050
     FM271300 01009KT P6SM SCT250=



000
FTUS41 KCTP 270332 AAA
TAFBFD
TAF AMD
KBFD 270332Z 2704/2724 04006KT P6SM OVC003
     FM271300 06007KT P6SM SKC=



000
FTUS41 KCTP 270332 AAA
TAFAOO
TAF AMD
KAOO 270332Z 2704/2724 34005KT P6SM OVC250
     FM270900 34006KT P6SM OVC025
     FM271300 02007KT P6SM BKN050=



000
FTUS41 KCTP 270332 AAA
TAFJST
TAF AMD
KJST 270332Z 2704/2724 31008KT P6SM SCT060 OVC100
     FM270700 34006KT P6SM OVC007
     FM271300 07005KT P6SM OVC003=



000
FTUS41 KCTP 270332 AAA
TAFUNV
TAF AMD
KUNV 270332Z 2704/2724 05007KT P6SM BKN025
     FM271000 04004KT P6SM SCT025 OVC035
     FM271300 04006KT P6SM SCT250=



000
FTUS41 KCTP 262347
TAFIPT
TAF
KIPT 262347Z 2700/2724 36005KT P6SM SKC
     FM270600 34006KT P6SM OVC035
     FM271300 32007KT P6SM SKC=



000
FTUS41 KCTP 262347
TAFUNV
TAF
KUNV 262347Z 2700/2724 31006G16KT P6SM SCT070
     FM270600 34006KT P6SM OVC025
     FM271300 04006KT P6SM SCT250=



000
FTUS41 KCTP 262347
TAFUNV
TAF
KUNV 262347Z 2700/2724 31006G16KT P6SM SCT070
     FM270600 34006KT P6SM OVC025
     FM271300 04006KT P6SM SCT250=



000
FTUS41 KCTP 262347
TAFIPT
TAF
KIPT 262347Z 2700/2724 36005KT P6SM SKC
     FM270600 34006KT P6SM OVC035
     FM271300 32007KT P6SM SKC=



000
FTUS41 KCTP 262347
TAFMDT
TAF
KMDT 262347Z 2700/2724 VRB03KT P6SM VCSH BKN080 BKN120
     FM270600 34006KT P6SM OVC040
     FM271300 01009KT P6SM SCT250=



000
FTUS41 KCTP 262347
TAFBFD
TAF
KBFD 262347Z 2700/2724 36007KT P6SM OVC009
     FM270500 04006KT P6SM OVC003
     FM271300 06007KT P6SM SKC=



000
FTUS41 KCTP 262347
TAFAOO
TAF
KAOO 262347Z 2700/2724 33007KT P6SM SCT060
     FM270600 34006KT P6SM OVC025
     FM271300 02007KT P6SM BKN050=



000
FTUS41 KCTP 262347
TAFJST
TAF
KJST 262347Z 2700/2724 30012G19KT P6SM VCSH BKN040 OVC060
     FM270400 34006KT P6SM OVC007
     FM271300 07005KT P6SM OVC003=



000
FTUS41 KCTP 262347
TAFMDT
TAF
KMDT 262347Z 2700/2724 VRB03KT P6SM VCSH BKN080 BKN120
     FM270600 34006KT P6SM OVC040
     FM271300 01009KT P6SM SCT250=



000
FTUS41 KCTP 262347
TAFAOO
TAF
KAOO 262347Z 2700/2724 33007KT P6SM SCT060
     FM270600 34006KT P6SM OVC025
     FM271300 02007KT P6SM BKN050=



000
FTUS41 KCTP 262347
TAFJST
TAF
KJST 262347Z 2700/2724 30012G19KT P6SM VCSH BKN040 OVC060
     FM270400 34006KT P6SM OVC007
     FM271300 07005KT P6SM OVC003=



000
FTUS41 KCTP 262347
TAFBFD
TAF
KBFD 262347Z 2700/2724 36007KT P6SM OVC009
     FM270500 04006KT P6SM OVC003
     FM271300 06007KT P6SM SKC=



000
FTUS41 KCTP 262239 AAB
TAFAOO
TAF AMD
KAOO 262239Z 2623/2718 28013G20KT P6SM -SHRA SCT060 BKN080
      TEMPO 2623/2624 32020G35KT 3SM -SHRA OVC045
     FM270600 34006KT P6SM OVC025
     FM271300 02007KT P6SM BKN050=



000
FTUS41 KCTP 262235 AAA
TAFIPT
TAF AMD
KIPT 262235Z 2623/2718 01016G25KT P6SM SKC
     FM270600 34006KT P6SM OVC035
     FM271300 32007KT P6SM SKC=



000
FTUS41 KCTP 262235 AAA
TAFUNV
TAF AMD
KUNV 262235Z 2623/2718 31010G19KT P6SM SCT070
     FM270600 34006KT P6SM OVC025
     FM271300 04006KT P6SM SCT250=



000
FTUS41 KCTP 262235 AAA
TAFAOO
TAF AMD
KAOO 262235Z 2623/2718 28013G20KT P6SM SCT070
     FM270600 34006KT P6SM OVC025
     FM271300 02007KT P6SM BKN050=



000
FTUS41 KCTP 262235 AAA
TAFBFD
TAF AMD
KBFD 262235Z 2623/2718 33008KT P6SM OVC012
     FM270000 34011KT P6SM OVC025
     FM270500 04006KT P6SM BKN009
     FM271300 06007KT P6SM SKC=



000
FTUS41 KCTP 262235 AAB
TAFMDT
TAF AMD
KMDT 262235Z 2623/2718 VRB04KT P6SM SCT070
     FM270600 34006KT P6SM OVC040
     FM271300 01009KT P6SM SCT250=



000
FTUS41 KCTP 262235 AAA
TAFJST
TAF AMD
KJST 262235Z 2623/2718 29010G20KT P6SM SCT045
     FM270400 34006KT P6SM OVC007
     FM271300 07005KT P6SM OVC003=



000
FTUS41 KCTP 262033 AAA
TAFMDT
TAF AMD
KMDT 262033Z 2621/2718 29015G27KT P6SM -SHRA VCTS BKN050CB OVC250
      TEMPO 2621/2622 31015G35KT 2SM -TSRA OVC035CB
     FM262200 31010KT P6SM OVC050
     FM270600 34006KT P6SM OVC040
     FM271300 01009KT P6SM SCT250=



000
FTUS41 KCTP 262033 AAA
TAFMDT
TAF AMD
KMDT 262033Z 2621/2718 29015G27KT P6SM -SHRA VCTS BKN050CB OVC250
      TEMPO 2621/2622 31015G35KT 2SM -TSRA OVC035CB
     FM262200 31010KT P6SM OVC050
     FM270600 34006KT P6SM OVC040
     FM271300 01009KT P6SM SCT250=



000
FTUS41 KCTP 261738
TAFJST
TAF
KJST 261738Z 2618/2718 26013G25KT P6SM VCTS OVC023CB
     FM262100 31010KT P6SM OVC050
     FM270400 34006KT P6SM OVC007
     FM271300 07005KT P6SM OVC003=



000
FTUS41 KCTP 261738
TAFIPT
TAF
KIPT 261738Z 2618/2718 27016G25KT P6SM FEW050 SCT060
     FM262000 31010KT P6SM OVC050
     FM270600 34006KT P6SM OVC035
     FM271300 32007KT P6SM SKC=



000
FTUS41 KCTP 261738
TAFAOO
TAF
KAOO 261738Z 2618/2718 28013G20KT P6SM -SHRA VCTS OVC040CB
     FM262200 31010KT P6SM OVC050
     FM270600 34006KT P6SM OVC025
     FM271300 02007KT P6SM BKN050=



000
FTUS41 KCTP 261738
TAFUNV
TAF
KUNV 261738Z 2618/2718 24009G18KT P6SM VCTS SCT045 BKN060CB
     FM262000 31010KT P6SM OVC050
     FM270600 34006KT P6SM OVC025
     FM271300 04006KT P6SM SCT250=



000
FTUS41 KCTP 261738
TAFMDT
TAF
KMDT 261738Z 2618/2718 26015G27KT P6SM SCT060
     FM261900 30015G25KT P6SM -SHRA VCTS BKN050CB
     FM262200 31010KT P6SM OVC050
     FM270600 34006KT P6SM OVC040
     FM271300 01009KT P6SM SCT250=



000
FTUS41 KCTP 261738
TAFBFD
TAF
KBFD 261738Z 2618/2718 29009G18KT 6SM -SHRA BR OVC008
     FM262000 32010KT P6SM OVC025
     FM270000 34011KT P6SM OVC050
     FM270500 04006KT P6SM BKN025
     FM271300 06007KT P6SM SKC=



000
FTUS41 KCTP 261526 AAA
TAFMDT
TAF AMD
KMDT 261526Z 2615/2712 00000KT P6SM FEW250
     FM261900 30015G25KT P6SM -SHRA VCTS BKN050CB
     FM262200 31010KT P6SM OVC050
     FM270600 34006KT P6SM OVC040=



000
FTUS41 KCTP 261526 AAA
TAFBFD
TAF AMD
KBFD 261526Z 2615/2712 28010G22KT P6SM VCSH OVC008
     FM261700 33012KT P6SM OVC015
     FM270000 34011KT P6SM OVC050
     FM270500 04006KT P6SM SKC=



000
FTUS41 KCTP 261526 AAA
TAFAOO
TAF AMD
KAOO 261526Z 2615/2712 26014G23KT P6SM FEW060
     FM261900 28013G20KT P6SM -SHRA VCTS OVC040CB
     FM262200 31010KT P6SM OVC050
     FM270600 34006KT P6SM OVC025=



000
FTUS41 KCTP 261526 AAA
TAFUNV
TAF AMD
KUNV 261526Z 2615/2712 27018KT P6SM SCT045
     FM261700 28013KT P6SM -SHRA VCTS OVC040CB
     FM262000 31010KT P6SM OVC050
     FM270600 34006KT P6SM OVC025=



000
FTUS41 KCTP 261526 AAA
TAFIPT
TAF AMD
KIPT 261526Z 2615/2712 14004KT P6SM SCT050
     FM261600 28013G20KT P6SM -SHRA OVC040
     FM262000 31010KT P6SM OVC050
     FM270600 34006KT P6SM OVC035=



000
FTUS41 KCTP 261526 AAA
TAFJST
TAF AMD
KJST 261526Z 2615/2712 24011G21KT P6SM FEW035 SCT045 BKN070
     FM261800 28015G22KT P6SM -SHRA VCTS OVC035CB
     FM262100 31010KT P6SM OVC050
     FM270400 34006KT P6SM OVC015=



    US Dept of Commerce
    National Oceanic and Atmospheric Administration
    National Weather Service
    1325 East West Highway
    Silver Spring, MD 20910
    Page Author: NWS Internet Services Team
Disclaimer
Information Quality
Credits
Glossary
Privacy Policy
Freedom of Information Act (FOIA)
About Us
Career Opportunities